sensor_id;sensor_type;location;lat;lon;timestamp;pressure;altitude;pressure_sealevel;temperature;humidity
71735;BME280;59577;52.122;5.406;2023-03-25T00:01:29;100169.81;;;9.32;80.91
71735;BME280;59577;52.122;5.406;2023-03-25T00:04:01;100150.47;;;9.30;80.70
71735;BME280;59577;52.122;5.406;2023-03-25T00:06:32;100152.78;;;9.28;80.75
71735;BME280;59577;52.122;5.406;2023-03-25T00:09:27;100165.50;;;9.28;80.99
71735;BME280;59577;52.122;5.406;2023-03-25T00:11:54;100172.03;;;9.27;81.05
71735;BME280;59577;52.122;5.406;2023-03-25T00:14:20;100161.94;;;9.23;80.38
71735;BME280;59577;52.122;5.406;2023-03-25T00:16:46;100164.63;;;9.23;81.21
71735;BME280;59577;52.122;5.406;2023-03-25T00:19:14;100162.22;;;9.18;80.95
71735;BME280;59577;52.122;5.406;2023-03-25T00:21:43;100164.50;;;9.16;81.13
71735;BME280;59577;52.122;5.406;2023-03-25T00:24:10;100174.53;;;9.16;81.10
71735;BME280;59577;52.122;5.406;2023-03-25T00:26:38;100156.41;;;9.16;81.87
71735;BME280;59577;52.122;5.406;2023-03-25T00:29:08;100156.41;;;9.16;81.49
71735;BME280;59577;52.122;5.406;2023-03-25T00:31:35;100161.41;;;9.14;81.20
71735;BME280;59577;52.122;5.406;2023-03-25T00:34:01;100148.25;;;9.13;81.08
71735;BME280;59577;52.122;5.406;2023-03-25T00:36:29;100162.16;;;9.15;81.55
71735;BME280;59577;52.122;5.406;2023-03-25T00:39:16;100162.16;;;9.15;81.17
71735;BME280;59577;52.122;5.406;2023-03-25T00:41:43;100153.31;;;9.14;81.06
71735;BME280;59577;52.122;5.406;2023-03-25T00:44:10;100164.16;;;9.18;81.60
71735;BME280;59577;52.122;5.406;2023-03-25T00:46:37;100161.47;;;9.18;81.24
71735;BME280;59577;52.122;5.406;2023-03-25T00:49:04;100156.47;;;9.20;81.22
71735;BME280;59577;52.122;5.406;2023-03-25T00:51:31;100168.06;;;9.20;81.27
71735;BME280;59577;52.122;5.406;2023-03-25T00:54:17;100166.09;;;9.17;81.31
71735;BME280;59577;52.122;5.406;2023-03-25T00:56:48;100168.38;;;9.15;81.43
71735;BME280;59577;52.122;5.406;2023-03-25T00:59:29;100175.66;;;9.15;81.24
71735;BME280;59577;52.122;5.406;2023-03-25T01:02:15;100170.97;;;9.12;81.51
71735;BME280;59577;52.122;5.406;2023-03-25T01:04:47;100162.88;;;9.12;80.84
71735;BME280;59577;52.122;5.406;2023-03-25T01:07:16;100165.97;;;9.10;81.05
71735;BME280;59577;52.122;5.406;2023-03-25T01:09:46;100173.25;;;9.10;80.28
71735;BME280;59577;52.122;5.406;2023-03-25T01:12:14;100172.50;;;9.09;79.97
71735;BME280;59577;52.122;5.406;2023-03-25T01:14:53;100159.00;;;9.09;79.90
71735;BME280;59577;52.122;5.406;2023-03-25T01:17:21;100167.09;;;9.09;80.80
71735;BME280;59577;52.122;5.406;2023-03-25T01:20:08;100164.38;;;9.09;80.03
71735;BME280;59577;52.122;5.406;2023-03-25T01:22:35;100157.41;;;9.08;80.73
71735;BME280;59577;52.122;5.406;2023-03-25T01:25:01;100162.81;;;9.08;80.23
71735;BME280;59577;52.122;5.406;2023-03-25T01:27:37;100165.16;;;9.10;80.80
71735;BME280;59577;52.122;5.406;2023-03-25T01:30:04;100160.91;;;9.09;80.67
71735;BME280;59577;52.122;5.406;2023-03-25T01:32:39;100163.16;;;9.07;81.13
71735;BME280;59577;52.122;5.406;2023-03-25T01:35:21;100155.81;;;9.03;81.64
71735;BME280;59577;52.122;5.406;2023-03-25T01:37:48;100158.88;;;9.02;81.31
71735;BME280;59577;52.122;5.406;2023-03-25T01:40:19;100151.47;;;8.99;81.10
71735;BME280;59577;52.122;5.406;2023-03-25T01:42:46;100156.88;;;8.99;81.22
71735;BME280;59577;52.122;5.406;2023-03-25T01:45:18;100147.19;;;8.98;81.35
71735;BME280;59577;52.122;5.406;2023-03-25T01:48:21;100149.91;;;8.98;82.14
71735;BME280;59577;52.122;5.406;2023-03-25T01:51:31;100164.13;;;8.95;82.52
71735;BME280;59577;52.122;5.406;2023-03-25T01:54:06;100156.69;;;8.88;83.38
71735;BME280;59577;52.122;5.406;2023-03-25T01:56:35;100147.06;;;8.91;83.40
71735;BME280;59577;52.122;5.406;2023-03-25T01:59:22;100148.59;;;8.88;83.74
71735;BME280;59577;52.122;5.406;2023-03-25T02:04:44;100145.59;;;8.74;84.69
71735;BME280;59577;52.122;5.406;2023-03-25T02:07:32;100141.56;;;8.64;85.20
71735;BME280;59577;52.122;5.406;2023-03-25T02:10:06;100143.50;;;8.63;86.24
71735;BME280;59577;52.122;5.406;2023-03-25T02:12:41;100147.72;;;8.64;85.82
71735;BME280;59577;52.122;5.406;2023-03-25T02:15:13;100155.41;;;8.62;85.75
71735;BME280;59577;52.122;5.406;2023-03-25T02:17:56;100142.28;;;8.61;85.76
71735;BME280;59577;52.122;5.406;2023-03-25T02:26:35;100140.13;;;8.51;87.06
71735;BME280;59577;52.122;5.406;2023-03-25T02:30:31;100152.16;;;8.37;88.04
71735;BME280;59577;52.122;5.406;2023-03-25T02:35:41;100140.66;;;8.21;89.90
71735;BME280;59577;52.122;5.406;2023-03-25T02:41:03;100148.59;;;8.14;90.98
71735;BME280;59577;52.122;5.406;2023-03-25T02:46:20;100131.59;;;8.13;90.88
71735;BME280;59577;52.122;5.406;2023-03-25T02:51:23;100149.72;;;8.13;91.63
71735;BME280;59577;52.122;5.406;2023-03-25T02:54:11;100147.09;;;8.16;91.70
71735;BME280;59577;52.122;5.406;2023-03-25T02:56:41;100128.28;;;8.20;91.40
71735;BME280;59577;52.122;5.406;2023-03-25T02:59:10;100130.00;;;8.28;91.09
71735;BME280;59577;52.122;5.406;2023-03-25T03:01:39;100138.16;;;8.32;91.02
71735;BME280;59577;52.122;5.406;2023-03-25T03:04:06;100138.59;;;8.34;90.25
71735;BME280;59577;52.122;5.406;2023-03-25T03:06:37;100117.03;;;8.34;91.04
71735;BME280;59577;52.122;5.406;2023-03-25T03:09:21;100115.13;;;8.34;90.78
71735;BME280;59577;52.122;5.406;2023-03-25T03:14:53;100110.50;;;8.35;90.17
71735;BME280;59577;52.122;5.406;2023-03-25T03:17:32;100115.91;;;8.35;90.39
71735;BME280;59577;52.122;5.406;2023-03-25T03:20:18;100111.28;;;8.35;90.36
71735;BME280;59577;52.122;5.406;2023-03-25T03:26:11;100112.16;;;8.39;90.75
71735;BME280;59577;52.122;5.406;2023-03-25T03:28:49;100117.91;;;8.38;90.61
71735;BME280;59577;52.122;5.406;2023-03-25T03:31:57;100113.56;;;8.33;91.31
71735;BME280;59577;52.122;5.406;2023-03-25T03:34:42;100113.06;;;8.27;91.95
71735;BME280;59577;52.122;5.406;2023-03-25T03:37:18;100113.06;;;8.27;91.60
71735;BME280;59577;52.122;5.406;2023-03-25T03:39:47;100097.66;;;8.28;92.05
71735;BME280;59577;52.122;5.406;2023-03-25T03:42:28;100110.72;;;8.26;91.56
71735;BME280;59577;52.122;5.406;2023-03-25T03:45:01;100105.69;;;8.24;92.02
71735;BME280;59577;52.122;5.406;2023-03-25T03:47:32;100112.25;;;8.27;92.11
71735;BME280;59577;52.122;5.406;2023-03-25T03:50:08;100105.69;;;8.24;92.17
71735;BME280;59577;52.122;5.406;2023-03-25T03:52:42;100109.94;;;8.25;92.01
71735;BME280;59577;52.122;5.406;2023-03-25T03:55:14;100113.84;;;8.28;92.03
71735;BME280;59577;52.122;5.406;2023-03-25T03:57:50;100095.66;;;8.25;92.06
71735;BME280;59577;52.122;5.406;2023-03-25T04:00:37;100094.47;;;8.22;92.82
71735;BME280;59577;52.122;5.406;2023-03-25T04:03:14;100097.09;;;8.19;93.30
71735;BME280;59577;52.122;5.406;2023-03-25T04:05:51;100091.69;;;8.19;93.40
71735;BME280;59577;52.122;5.406;2023-03-25T04:08:40;100099.78;;;8.19;94.08
71735;BME280;59577;52.122;5.406;2023-03-25T04:11:19;100102.91;;;8.21;93.66
71735;BME280;59577;52.122;5.406;2023-03-25T04:13:50;100079.34;;;8.18;93.72
71735;BME280;59577;52.122;5.406;2023-03-25T04:16:18;100088.94;;;8.15;94.16
71735;BME280;59577;52.122;5.406;2023-03-25T04:18:44;100097.78;;;8.16;94.07
71735;BME280;59577;52.122;5.406;2023-03-25T04:21:13;100084.66;;;8.14;94.49
71735;BME280;59577;52.122;5.406;2023-03-25T04:23:40;100071.81;;;8.07;95.08
71735;BME280;59577;52.122;5.406;2023-03-25T04:26:07;100080.97;;;8.03;95.43
71735;BME280;59577;52.122;5.406;2023-03-25T04:28:33;100086.38;;;8.03;95.89
71735;BME280;59577;52.122;5.406;2023-03-25T04:31:02;100096.69;;;8.01;95.55
71735;BME280;59577;52.122;5.406;2023-03-25T04:33:32;100084.03;;;8.01;95.87
71735;BME280;59577;52.122;5.406;2023-03-25T04:36:01;100088.97;;;7.99;95.66
71735;BME280;59577;52.122;5.406;2023-03-25T04:38:31;100076.56;;;7.95;96.21
71735;BME280;59577;52.122;5.406;2023-03-25T04:40:58;100083.75;;;7.90;96.75
71735;BME280;59577;52.122;5.406;2023-03-25T04:43:25;100092.94;;;7.86;97.48
71735;BME280;59577;52.122;5.406;2023-03-25T04:45:53;100084.31;;;7.80;97.42
71735;BME280;59577;52.122;5.406;2023-03-25T04:48:25;100111.63;;;7.79;98.41
71735;BME280;59577;52.122;5.406;2023-03-25T04:50:56;100123.53;;;7.78;98.20
71735;BME280;59577;52.122;5.406;2023-03-25T04:53:28;100110.06;;;7.78;98.76
71735;BME280;59577;52.122;5.406;2023-03-25T04:55:55;100119.00;;;7.82;98.32
71735;BME280;59577;52.122;5.406;2023-03-25T04:58:21;100119.72;;;7.79;98.18
71735;BME280;59577;52.122;5.406;2023-03-25T05:00:50;100117.88;;;7.83;98.48
71735;BME280;59577;52.122;5.406;2023-03-25T05:03:18;100120.63;;;7.86;98.20
71735;BME280;59577;52.122;5.406;2023-03-25T05:05:57;100129.50;;;7.87;97.30
71735;BME280;59577;52.122;5.406;2023-03-25T05:08:26;100129.94;;;7.89;97.70
71735;BME280;59577;52.122;5.406;2023-03-25T05:10:54;100118.03;;;7.90;97.28
71735;BME280;59577;52.122;5.406;2023-03-25T05:13:21;100115.75;;;7.92;96.96
71735;BME280;59577;52.122;5.406;2023-03-25T05:15:54;100116.97;;;7.95;97.29
71735;BME280;59577;52.122;5.406;2023-03-25T05:18:22;100132.88;;;8.00;96.76
71735;BME280;59577;52.122;5.406;2023-03-25T05:21:02;100113.94;;;7.96;97.14
71735;BME280;59577;52.122;5.406;2023-03-25T05:23:41;100116.63;;;7.96;96.63
71735;BME280;59577;52.122;5.406;2023-03-25T05:26:11;100118.88;;;7.94;96.40
71735;BME280;59577;52.122;5.406;2023-03-25T05:28:44;100128.88;;;7.94;96.92
71735;BME280;59577;52.122;5.406;2023-03-25T05:31:10;100121.88;;;7.89;96.69
71735;BME280;59577;52.122;5.406;2023-03-25T05:33:38;100125.69;;;7.88;96.35
71735;BME280;59577;52.122;5.406;2023-03-25T05:36:20;100117.59;;;7.88;96.08
71735;BME280;59577;52.122;5.406;2023-03-25T05:38:53;100114.81;;;7.84;96.27
71735;BME280;59577;52.122;5.406;2023-03-25T05:41:29;100115.94;;;7.83;96.15
71735;BME280;59577;52.122;5.406;2023-03-25T05:43:59;100120.13;;;7.81;95.96
71735;BME280;59577;52.122;5.406;2023-03-25T05:46:34;100132.81;;;7.80;95.79
71735;BME280;59577;52.122;5.406;2023-03-25T05:49:01;100133.69;;;7.84;95.83
71735;BME280;59577;52.122;5.406;2023-03-25T05:51:31;100130.72;;;7.89;95.50
71735;BME280;59577;52.122;5.406;2023-03-25T05:53:59;100136.63;;;7.95;95.45
71735;BME280;59577;52.122;5.406;2023-03-25T05:56:27;100141.66;;;7.97;94.99
71735;BME280;59577;52.122;5.406;2023-03-25T05:58:55;100140.09;;;7.96;94.87
71735;BME280;59577;52.122;5.406;2023-03-25T06:01:23;100139.75;;;7.97;94.70
71735;BME280;59577;52.122;5.406;2023-03-25T06:04:02;100136.63;;;7.95;94.64
71735;BME280;59577;52.122;5.406;2023-03-25T06:06:30;100138.53;;;7.95;94.52
71735;BME280;59577;52.122;5.406;2023-03-25T06:09:00;100151.66;;;7.96;94.47
71735;BME280;59577;52.122;5.406;2023-03-25T06:11:27;100151.81;;;8.03;94.00
71735;BME280;59577;52.122;5.406;2023-03-25T06:13:56;100153.09;;;8.09;93.97
71735;BME280;59577;52.122;5.406;2023-03-25T06:16:24;100150.47;;;8.13;93.40
71735;BME280;59577;52.122;5.406;2023-03-25T06:18:55;100152.06;;;8.14;93.01
71735;BME280;59577;52.122;5.406;2023-03-25T06:21:30;100149.00;;;8.16;92.93
71735;BME280;59577;52.122;5.406;2023-03-25T06:23:58;100157.53;;;8.18;92.57
71735;BME280;59577;52.122;5.406;2023-03-25T06:26:26;100150.72;;;8.24;92.49
71735;BME280;59577;52.122;5.406;2023-03-25T06:28:59;100138.53;;;8.30;92.16
71735;BME280;59577;52.122;5.406;2023-03-25T06:31:29;100134.38;;;8.52;91.49
71735;BME280;59577;52.122;5.406;2023-03-25T06:33:59;100144.19;;;9.46;90.81
71735;BME280;59577;52.122;5.406;2023-03-25T06:36:26;100143.47;;;9.98;87.86
71735;BME280;59577;52.122;5.406;2023-03-25T06:38:53;100143.59;;;9.56;87.01
71735;BME280;59577;52.122;5.406;2023-03-25T06:41:45;100152.75;;;9.05;88.49
71735;BME280;59577;52.122;5.406;2023-03-25T06:44:12;100146.81;;;8.76;89.91
71735;BME280;59577;52.122;5.406;2023-03-25T06:46:50;100162.94;;;8.53;91.84
71735;BME280;59577;52.122;5.406;2023-03-25T06:49:17;100161.03;;;8.38;92.83
71735;BME280;59577;52.122;5.406;2023-03-25T06:51:44;100166.28;;;8.31;93.04
71735;BME280;59577;52.122;5.406;2023-03-25T06:54:10;100173.78;;;8.21;93.98
71735;BME280;59577;52.122;5.406;2023-03-25T06:56:37;100178.22;;;8.14;94.50
71735;BME280;59577;52.122;5.406;2023-03-25T06:59:04;100181.53;;;8.07;94.97
71735;BME280;59577;52.122;5.406;2023-03-25T07:01:55;100176.50;;;8.05;95.89
71735;BME280;59577;52.122;5.406;2023-03-25T07:04:22;100179.19;;;8.05;95.45
71735;BME280;59577;52.122;5.406;2023-03-25T07:06:49;100178.44;;;8.05;95.71
71735;BME280;59577;52.122;5.406;2023-03-25T07:09:16;100175.66;;;8.01;96.33
71735;BME280;59577;52.122;5.406;2023-03-25T07:11:43;100180.16;;;7.97;96.15
71735;BME280;59577;52.122;5.406;2023-03-25T07:14:15;100180.00;;;7.90;96.79
71735;BME280;59577;52.122;5.406;2023-03-25T07:16:42;100188.34;;;7.85;97.08
71735;BME280;59577;52.122;5.406;2023-03-25T07:19:09;100194.97;;;7.87;97.74
71735;BME280;59577;52.122;5.406;2023-03-25T07:21:35;100180.34;;;7.88;98.09
71735;BME280;59577;52.122;5.406;2023-03-25T07:24:02;100183.03;;;7.88;97.94
71735;BME280;59577;52.122;5.406;2023-03-25T07:26:31;100184.28;;;7.91;98.41
71735;BME280;59577;52.122;5.406;2023-03-25T07:28:58;100186.25;;;7.94;98.21
71735;BME280;59577;52.122;5.406;2023-03-25T07:31:25;100186.16;;;7.90;98.23
71735;BME280;59577;52.122;5.406;2023-03-25T07:33:51;100180.84;;;7.94;98.46
71735;BME280;59577;52.122;5.406;2023-03-25T07:36:35;100186.16;;;8.06;99.11
71735;BME280;59577;52.122;5.406;2023-03-25T07:39:07;100184.25;;;8.42;98.95
71735;BME280;59577;52.122;5.406;2023-03-25T07:41:34;100192.34;;;8.42;97.74
71735;BME280;59577;52.122;5.406;2023-03-25T07:44:01;100180.66;;;8.54;97.69
71735;BME280;59577;52.122;5.406;2023-03-25T07:46:27;100196.28;;;9.23;97.68
71735;BME280;59577;52.122;5.406;2023-03-25T07:48:54;100185.78;;;9.41;95.84
71735;BME280;59577;52.122;5.406;2023-03-25T07:51:24;100191.47;;;9.36;94.57
71735;BME280;59577;52.122;5.406;2023-03-25T07:53:58;100191.75;;;9.08;94.11
71735;BME280;59577;52.122;5.406;2023-03-25T07:56:31;100196.53;;;8.95;94.99
71735;BME280;59577;52.122;5.406;2023-03-25T07:58:59;100194.25;;;8.77;95.65
71735;BME280;59577;52.122;5.406;2023-03-25T08:01:29;100191.25;;;8.63;96.88
71735;BME280;59577;52.122;5.406;2023-03-25T08:03:56;100193.72;;;8.52;96.95
71735;BME280;59577;52.122;5.406;2023-03-25T08:06:23;100195.13;;;8.46;96.83
71735;BME280;59577;52.122;5.406;2023-03-25T08:08:49;100202.50;;;8.49;97.37
71735;BME280;59577;52.122;5.406;2023-03-25T08:11:30;100207.56;;;8.51;96.41
71735;BME280;59577;52.122;5.406;2023-03-25T08:13:59;100190.25;;;8.52;97.36
71735;BME280;59577;52.122;5.406;2023-03-25T08:16:26;100205.81;;;8.58;97.93
71735;BME280;59577;52.122;5.406;2023-03-25T08:18:58;100198.78;;;8.54;96.66
71735;BME280;59577;52.122;5.406;2023-03-25T08:21:25;100202.75;;;8.60;96.16
71735;BME280;59577;52.122;5.406;2023-03-25T08:23:54;100211.34;;;8.65;96.19
71735;BME280;59577;52.122;5.406;2023-03-25T08:26:25;100214.75;;;8.62;96.24
71735;BME280;59577;52.122;5.406;2023-03-25T08:29:15;100216.94;;;8.57;96.22
71735;BME280;59577;52.122;5.406;2023-03-25T08:31:49;100212.25;;;8.54;96.89
71735;BME280;59577;52.122;5.406;2023-03-25T08:34:19;100216.22;;;8.60;96.55
71735;BME280;59577;52.122;5.406;2023-03-25T08:36:46;100206.16;;;8.76;97.46
71735;BME280;59577;52.122;5.406;2023-03-25T08:39:13;100224.56;;;9.10;97.19
71735;BME280;59577;52.122;5.406;2023-03-25T08:41:49;100220.72;;;9.11;96.83
71735;BME280;59577;52.122;5.406;2023-03-25T08:44:15;100215.41;;;8.95;96.79
71735;BME280;59577;52.122;5.406;2023-03-25T08:46:42;100214.53;;;8.91;97.02
71735;BME280;59577;52.122;5.406;2023-03-25T08:49:09;100213.69;;;9.06;96.86
71735;BME280;59577;52.122;5.406;2023-03-25T08:51:36;100219.09;;;9.06;96.07
71735;BME280;59577;52.122;5.406;2023-03-25T08:54:02;100217.94;;;9.27;96.89
71735;BME280;59577;52.122;5.406;2023-03-25T08:56:29;100221.06;;;10.21;96.34
71735;BME280;59577;52.122;5.406;2023-03-25T08:58:56;100219.13;;;10.22;93.48
71735;BME280;59577;52.122;5.406;2023-03-25T09:01:23;100219.44;;;10.43;94.13
71735;BME280;59577;52.122;5.406;2023-03-25T09:03:49;100216.78;;;11.07;93.52
71735;BME280;59577;52.122;5.406;2023-03-25T09:06:16;100220.34;;;11.15;91.60
71735;BME280;59577;52.122;5.406;2023-03-25T09:08:43;100221.81;;;11.09;89.91
71735;BME280;59577;52.122;5.406;2023-03-25T09:11:15;100225.13;;;10.95;91.98
71735;BME280;59577;52.122;5.406;2023-03-25T09:13:55;100223.41;;;10.80;93.75
71735;BME280;59577;52.122;5.406;2023-03-25T09:16:22;100214.63;;;10.90;93.08
71735;BME280;59577;52.122;5.406;2023-03-25T09:18:49;100216.06;;;10.80;93.25
71735;BME280;59577;52.122;5.406;2023-03-25T09:21:16;100218.66;;;10.69;93.04
71735;BME280;59577;52.122;5.406;2023-03-25T09:23:46;100218.97;;;10.64;91.30
71735;BME280;59577;52.122;5.406;2023-03-25T09:26:18;100224.16;;;10.77;92.00
71735;BME280;59577;52.122;5.406;2023-03-25T09:28:45;100228.03;;;10.79;91.70
71735;BME280;59577;52.122;5.406;2023-03-25T09:31:13;100232.69;;;10.79;94.48
71735;BME280;59577;52.122;5.406;2023-03-25T09:33:40;100223.16;;;11.26;92.92
71735;BME280;59577;52.122;5.406;2023-03-25T09:36:07;100243.84;;;11.82;90.48
71735;BME280;59577;52.122;5.406;2023-03-25T09:38:34;100235.84;;;12.00;90.48
71735;BME280;59577;52.122;5.406;2023-03-25T09:41:11;100241.78;;;12.79;89.20
71735;BME280;59577;52.122;5.406;2023-03-25T09:46:47;100236.47;;;12.31;82.67
71735;BME280;59577;52.122;5.406;2023-03-25T09:49:36;100236.38;;;11.72;85.79
71735;BME280;59577;52.122;5.406;2023-03-25T09:52:05;100235.69;;;11.41;85.60
71735;BME280;59577;52.122;5.406;2023-03-25T09:54:37;100235.94;;;11.25;86.82
71735;BME280;59577;52.122;5.406;2023-03-25T09:57:13;100243.53;;;11.13;87.50
71735;BME280;59577;52.122;5.406;2023-03-25T09:59:50;100243.38;;;11.02;87.09
71735;BME280;59577;52.122;5.406;2023-03-25T10:10:41;100250.53;;;10.83;88.00
71735;BME280;59577;52.122;5.406;2023-03-25T10:22:05;100261.28;;;11.10;85.40
71735;BME280;59577;52.122;5.406;2023-03-25T10:24:54;100261.56;;;11.01;85.71
71735;BME280;59577;52.122;5.406;2023-03-25T10:27:41;100262.63;;;10.93;86.99
71735;BME280;59577;52.122;5.406;2023-03-25T10:30:22;100261.78;;;10.85;85.85
71735;BME280;59577;52.122;5.406;2023-03-25T10:33:01;100263.53;;;10.74;85.72
71735;BME280;59577;52.122;5.406;2023-03-25T10:35:34;100260.38;;;10.68;85.94
71735;BME280;59577;52.122;5.406;2023-03-25T10:38:19;100257.00;;;10.75;85.00
71735;BME280;59577;52.122;5.406;2023-03-25T10:40:47;100273.25;;;10.75;85.18
71735;BME280;59577;52.122;5.406;2023-03-25T10:46:12;100271.75;;;11.12;85.98
71735;BME280;59577;52.122;5.406;2023-03-25T10:48:42;100264.47;;;11.19;85.22
71735;BME280;59577;52.122;5.406;2023-03-25T10:51:14;100269.47;;;11.14;86.55
71735;BME280;59577;52.122;5.406;2023-03-25T10:53:54;100281.47;;;11.13;84.87
71735;BME280;59577;52.122;5.406;2023-03-25T10:56:23;100271.69;;;11.04;87.67
71735;BME280;59577;52.122;5.406;2023-03-25T10:58:52;100271.59;;;10.97;84.27
71735;BME280;59577;52.122;5.406;2023-03-25T11:01:27;100276.72;;;10.76;84.50
71735;BME280;59577;52.122;5.406;2023-03-25T11:03:58;100287.34;;;10.61;84.69
71735;BME280;59577;52.122;5.406;2023-03-25T11:06:31;100286.72;;;10.71;85.68
71735;BME280;59577;52.122;5.406;2023-03-25T11:09:15;100301.41;;;10.70;84.79
71735;BME280;59577;52.122;5.406;2023-03-25T11:11:44;100284.75;;;10.68;85.16
71735;BME280;59577;52.122;5.406;2023-03-25T11:14:12;100279.88;;;10.81;84.97
71735;BME280;59577;52.122;5.406;2023-03-25T11:16:42;100308.56;;;10.86;82.95
71735;BME280;59577;52.122;5.406;2023-03-25T11:19:24;100304.69;;;10.83;85.83
71735;BME280;59577;52.122;5.406;2023-03-25T11:21:54;100300.63;;;10.70;84.07
71735;BME280;59577;52.122;5.406;2023-03-25T11:24:33;100297.25;;;10.77;84.23
71735;BME280;59577;52.122;5.406;2023-03-25T11:27:24;100302.59;;;11.34;84.87
71735;BME280;59577;52.122;5.406;2023-03-25T11:29:54;100300.28;;;11.36;85.01
71735;BME280;59577;52.122;5.406;2023-03-25T11:32:34;100295.50;;;11.22;82.77
71735;BME280;59577;52.122;5.406;2023-03-25T11:35:22;100300.66;;;11.04;83.68
71735;BME280;59577;52.122;5.406;2023-03-25T11:38:00;100288.47;;;10.87;84.41
71735;BME280;59577;52.122;5.406;2023-03-25T11:40:28;100283.97;;;10.98;85.05
71735;BME280;59577;52.122;5.406;2023-03-25T11:42:57;100296.59;;;11.17;84.78
71735;BME280;59577;52.122;5.406;2023-03-25T11:45:35;100294.59;;;11.14;84.04
71735;BME280;59577;52.122;5.406;2023-03-25T11:48:11;100286.13;;;11.16;83.54
71735;BME280;59577;52.122;5.406;2023-03-25T11:51:01;100306.59;;;11.47;83.08
71735;BME280;59577;52.122;5.406;2023-03-25T11:53:32;100290.97;;;11.71;81.78
71735;BME280;59577;52.122;5.406;2023-03-25T11:56:20;100302.78;;;11.52;80.57
71735;BME280;59577;52.122;5.406;2023-03-25T11:58:49;100303.66;;;11.25;82.06
71735;BME280;59577;52.122;5.406;2023-03-25T12:01:43;100305.59;;;11.25;82.59
71735;BME280;59577;52.122;5.406;2023-03-25T12:04:20;100302.75;;;11.48;80.89
71735;BME280;59577;52.122;5.406;2023-03-25T12:06:59;100297.38;;;11.52;81.25
71735;BME280;59577;52.122;5.406;2023-03-25T12:09:29;100292.31;;;11.50;82.53
71735;BME280;59577;52.122;5.406;2023-03-25T12:20:59;100294.34;;;11.60;81.13
71735;BME280;59577;52.122;5.406;2023-03-25T12:23:51;100291.53;;;11.50;81.26
71735;BME280;59577;52.122;5.406;2023-03-25T12:26:34;100290.13;;;12.04;78.08
71735;BME280;59577;52.122;5.406;2023-03-25T12:31:47;100279.94;;;12.38;77.80
71735;BME280;59577;52.122;5.406;2023-03-25T12:39:41;100271.84;;;12.46;76.18
71735;BME280;59577;52.122;5.406;2023-03-25T12:45:05;100296.56;;;12.33;76.47
71735;BME280;59577;52.122;5.406;2023-03-25T12:47:38;100321.53;;;12.53;77.74
71735;BME280;59577;52.122;5.406;2023-03-25T12:50:30;100286.25;;;12.57;76.95
71735;BME280;59577;52.122;5.406;2023-03-25T12:53:18;100288.53;;;12.44;73.04
71735;BME280;59577;52.122;5.406;2023-03-25T13:01:36;100302.03;;;13.03;74.49
71735;BME280;59577;52.122;5.406;2023-03-25T13:04:33;100305.97;;;13.16;72.29
71735;BME280;59577;52.122;5.406;2023-03-25T13:07:08;100300.59;;;13.31;71.76
71735;BME280;59577;52.122;5.406;2023-03-25T13:10:05;100289.44;;;13.61;70.47
71735;BME280;59577;52.122;5.406;2023-03-25T13:12:41;100291.00;;;13.80;71.35
71735;BME280;59577;52.122;5.406;2023-03-25T13:17:56;100297.63;;;13.76;68.87
71735;BME280;59577;52.122;5.406;2023-03-25T13:20:29;100291.38;;;13.71;69.56
71735;BME280;59577;52.122;5.406;2023-03-25T13:23:00;100302.25;;;13.64;68.74
71735;BME280;59577;52.122;5.406;2023-03-25T13:28:22;100311.97;;;13.62;70.27
71735;BME280;59577;52.122;5.406;2023-03-25T13:30:53;100311.56;;;13.56;70.33
71735;BME280;59577;52.122;5.406;2023-03-25T13:33:33;100310.38;;;13.50;70.51
71735;BME280;59577;52.122;5.406;2023-03-25T13:36:28;100319.78;;;13.81;72.68
71735;BME280;59577;52.122;5.406;2023-03-25T13:39:04;100327.16;;;13.81;69.49
71735;BME280;59577;52.122;5.406;2023-03-25T13:41:37;100327.94;;;13.70;71.75
71735;BME280;59577;52.122;5.406;2023-03-25T13:44:29;100319.34;;;13.72;70.53
71735;BME280;59577;52.122;5.406;2023-03-25T13:49:57;100335.28;;;13.63;70.47
71735;BME280;59577;52.122;5.406;2023-03-25T13:52:32;100323.25;;;13.67;70.64
71735;BME280;59577;52.122;5.406;2023-03-25T13:55:25;100315.91;;;13.89;69.70
71735;BME280;59577;52.122;5.406;2023-03-25T14:01:24;100330.66;;;13.81;69.86
71735;BME280;59577;52.122;5.406;2023-03-25T14:04:32;100341.06;;;13.47;70.51
71735;BME280;59577;52.122;5.406;2023-03-25T14:12:53;100385.75;;;12.35;74.56
71735;BME280;59577;52.122;5.406;2023-03-25T14:15:26;100389.28;;;11.98;76.29
71735;BME280;59577;52.122;5.406;2023-03-25T14:17:55;100387.75;;;11.66;76.83
71735;BME280;59577;52.122;5.406;2023-03-25T14:20:26;100402.53;;;11.39;78.15
71735;BME280;59577;52.122;5.406;2023-03-25T14:22:57;100392.38;;;11.32;78.86
71735;BME280;59577;52.122;5.406;2023-03-25T14:25:38;100380.41;;;11.37;79.33
71735;BME280;59577;52.122;5.406;2023-03-25T14:28:07;100383.81;;;11.60;79.88
71735;BME280;59577;52.122;5.406;2023-03-25T14:30:42;100382.47;;;11.77;79.33
71735;BME280;59577;52.122;5.406;2023-03-25T14:33:10;100368.50;;;11.75;79.67
71735;BME280;59577;52.122;5.406;2023-03-25T14:40:46;100389.13;;;11.83;79.69
71735;BME280;59577;52.122;5.406;2023-03-25T14:43:42;100373.34;;;11.93;79.85
71735;BME280;59577;52.122;5.406;2023-03-25T14:54:04;100373.38;;;12.37;79.25
71735;BME280;59577;52.122;5.406;2023-03-25T14:56:52;100372.31;;;12.49;79.52
71735;BME280;59577;52.122;5.406;2023-03-25T14:59:38;100385.84;;;12.46;76.98
71735;BME280;59577;52.122;5.406;2023-03-25T15:02:28;100387.56;;;12.20;77.10
71735;BME280;59577;52.122;5.406;2023-03-25T15:04:59;100387.09;;;12.11;78.38
71735;BME280;59577;52.122;5.406;2023-03-25T15:10:25;100384.06;;;11.82;76.81
71735;BME280;59577;52.122;5.406;2023-03-25T15:21:12;100405.81;;;11.55;78.46
71735;BME280;59577;52.122;5.406;2023-03-25T15:23:44;100470.97;;;11.62;80.05
71735;BME280;59577;52.122;5.406;2023-03-25T15:26:26;100468.81;;;11.18;80.74
71735;BME280;59577;52.122;5.406;2023-03-25T15:34:42;100486.53;;;9.84;80.69